Time;durP1;ratioP1;P1;durP2;ratioP2;P2;SDS_P1;SDS_P2;PMS_P1;PMS_P2;Temp;Humidity;BMP_temperature;BMP_pressure;BME280_temperature;BME280_humidity;BME280_pressure;Samples;Min_cycle;Max_cycle;Signal;HPM_P1;HPM_P2
2021/09/12 00:00:07;;;;;;;8.90;3.10;;;;;;;-142.75;90.67;76755.34;5003386;28;19913;-83
2021/09/12 00:02:33;;;;;;;14.38;3.70;;;;;;;-142.75;90.93;76790.78;5005295;28;20389;-82
2021/09/12 00:04:58;;;;;;;;;;;;;;;-142.75;90.55;76782.91;5004249;28;20025;-82
2021/09/12 00:07:23;;;;;;;12.25;3.45;;;;;;;-142.75;91.75;76790.78;4999665;28;19921;-81
2021/09/12 00:09:49;;;;;;;;;;;;;;;-142.75;91.81;76798.66;5001483;28;20030;-82
2021/09/12 00:12:14;;;;;;;7.53;3.20;;;;;;;-142.75;91.92;76798.66;5004596;28;20379;-83
2021/09/12 00:14:39;;;;;;;;;;;;;;;-142.75;91.09;76814.38;4999415;28;20030;-82
2021/09/12 00:17:05;;;;;;;13.57;4.03;;;;;;;-142.75;91.43;76816.34;5003290;28;19924;-83
2021/09/12 00:19:30;;;;;;;;;;;;;;;-142.75;91.11;76806.50;5001994;28;20022;-82
2021/09/12 00:21:55;;;;;;;10.75;3.75;;;;;;;-142.75;91.31;76812.41;5002732;28;19913;-83
2021/09/12 00:24:21;;;;;;;;;;;;;;;-142.75;91.25;76820.28;4998652;28;20116;-83
2021/09/12 00:26:46;;;;;;;11.27;3.17;;;;;;;-142.75;91.34;76834.06;5002442;28;20350;-82
2021/09/12 00:29:11;;;;;;;;;;;;;;;-142.75;91.26;76836.03;5002594;28;20021;-83
2021/09/12 00:31:36;;;;;;;7.70;3.20;;;;;;;-142.75;91.57;76853.75;5001806;28;20295;-81
2021/09/12 00:34:02;;;;;;;;;;;;;;;-142.75;91.84;76845.88;5005647;28;20105;-82
2021/09/12 00:36:27;;;;;;;8.50;3.10;;;;;;;-142.75;92.07;76841.94;4999312;28;19913;-84
2021/09/12 00:38:52;;;;;;;;;;;;;;;-142.75;92.54;76845.88;5003022;28;20117;-82
2021/09/12 00:41:18;;;;;;;7.32;3.33;;;;;;;-142.75;92.06;76845.88;5004636;28;19917;-82
2021/09/12 00:43:43;;;;;;;;;;;;;;;-142.75;92.11;76853.75;5000861;28;20033;-82
2021/09/12 00:46:08;;;;;;;8.10;3.22;;;;;;;-142.75;92.42;76861.63;5000156;28;19913;-82
2021/09/12 00:48:34;;;;;;;;;;;;;;;-142.75;92.88;76865.56;5002771;28;20025;-80
2021/09/12 00:51:00;;;;;;;9.18;3.50;;;;;;;-142.75;93.41;76873.44;5001494;28;20375;-79
2021/09/12 00:53:26;;;;;;;;;;;;;;;-142.75;93.52;76887.22;5004960;28;20021;-81
2021/09/12 00:55:53;;;;;;;9.13;3.63;;;;;;;-142.75;93.83;76885.25;5004379;28;20503;-82
2021/09/12 00:58:21;;;;;;;9.55;3.65;;;;;;;-142.75;93.76;76893.13;5002471;28;20053;-80
2021/09/12 01:00:46;;;;;;;13.15;3.65;;;;;;;-142.75;94.12;76897.06;5001557;28;20026;-81
2021/09/12 01:03:11;;;;;;;;;;;;;;;-142.75;94.12;76908.88;5001637;28;20033;-80
2021/09/12 01:05:38;;;;;;;13.45;3.95;;;;;;;-142.75;94.69;76902.97;5002675;28;20012;-80
2021/09/12 01:08:05;;;;;;;11.30;3.67;;;;;;;-142.75;94.60;76916.75;5000876;28;20495;-80
2021/09/12 01:10:30;;;;;;;12.75;3.92;;;;;;;-142.75;95.04;76924.63;5003454;28;20029;-80
2021/09/12 01:12:55;;;;;;;;;;;;;;;-142.75;94.95;76924.63;5001793;28;20037;-80
2021/09/12 01:15:21;;;;;;;11.80;4.38;;;;;;;-142.75;95.41;76930.53;5003246;28;19917;-82
2021/09/12 01:17:46;;;;;;;;;;;;;;;-142.75;96.26;76934.47;5001860;28;20565;-81
2021/09/12 01:20:12;;;;;;;11.23;4.20;;;;;;;-142.75;97.34;76928.56;4999465;28;19914;-80
2021/09/12 01:22:37;;;;;;;;;;;;;;;-142.75;97.19;76934.47;5001115;28;20022;-81
2021/09/12 01:25:04;;;;;;;16.83;5.57;;;;;;;-142.75;97.43;76946.28;5000182;28;19992;-80
2021/09/12 01:27:29;;;;;;;11.52;5.35;;;;;;;-142.75;97.35;76952.19;5001243;28;20480;-80
2021/09/12 01:29:54;;;;;;;;;;;;;;;-142.75;97.22;76948.25;5001885;28;20117;-81
2021/09/12 01:32:23;;;;;;;13.95;5.72;;;;;;;-142.75;97.80;76960.06;5003634;28;19921;-80
2021/09/12 01:34:48;;;;;;;13.82;5.95;;;;;;;-142.75;98.44;76952.19;5002056;28;20395;-80
2021/09/12 01:37:13;;;;;;;;;;;;;;;-142.75;98.22;76965.97;5001430;28;20037;-80
2021/09/12 01:39:39;;;;;;;13.70;5.85;;;;;;;-142.75;97.70;76962.03;5002144;28;20044;-81
2021/09/12 01:42:04;;;;;;;;;;;;;;;-142.75;97.88;76964.00;5001938;28;20492;-80
2021/09/12 01:44:29;;;;;;;11.43;5.55;;;;;;;-142.75;98.28;76969.91;5002136;28;19949;-81
2021/09/12 01:46:55;;;;;;;;;;;;;;;-142.75;98.71;76975.81;5001326;28;20026;-81
2021/09/12 01:49:21;;;;;;;16.02;5.95;;;;;;;-142.75;98.96;76981.72;4996824;28;19913;-82
2021/09/12 01:51:46;;;;;;;;;;;;;;;-142.75;99.07;76971.88;5000344;28;20042;-81
2021/09/12 01:54:12;;;;;;;13.32;5.53;;;;;;;-142.75;99.33;76975.81;5000127;28;19948;-82
2021/09/12 01:56:37;;;;;;;;;;;;;;;-142.75;99.45;76983.69;5003528;28;20033;-81
2021/09/12 01:59:03;;;;;;;17.80;6.22;;;;;;;-142.75;99.69;76989.59;5002730;28;20119;-81
2021/09/12 02:01:28;;;;;;;;;;;;;;;-142.75;99.90;76991.56;5002081;28;20030;-80
2021/09/12 02:03:53;;;;;;;12.90;6.20;;;;;;;-142.75;100.00;76993.53;4998596;28;19924;-81
2021/09/12 02:06:18;;;;;;;;;;;;;;;-142.75;100.00;76989.59;4998472;28;20460;-81
2021/09/12 02:08:44;;;;;;;17.58;6.53;;;;;;;-142.75;100.00;76991.56;5000554;28;19944;-81
2021/09/12 02:11:10;;;;;;;;;;;;;;;-142.75;100.00;76989.59;4999163;28;20210;-80
2021/09/12 02:13:35;;;;;;;19.80;7.10;;;;;;;-142.75;100.00;76999.44;4997029;28;20009;-81
2021/09/12 02:16:01;;;;;;;;;;;;;;;-142.75;100.00;76995.50;4995914;28;20111;-81
2021/09/12 02:18:26;;;;;;;15.10;6.80;;;;;;;-142.75;100.00;76997.47;4995542;28;19932;-81
2021/09/12 02:20:51;;;;;;;17.95;6.50;;;;;;;-142.75;100.00;77001.41;5006434;28;20022;-82
2021/09/12 02:23:16;;;;;;;;;;;;;;;-142.75;100.00;77003.38;5006978;28;20026;-82
2021/09/12 02:25:42;;;;;;;13.27;6.57;;;;;;;-142.75;100.00;77005.34;5000639;28;19919;-82
2021/09/12 02:28:07;;;;;;;;;;;;;;;-142.75;100.00;76997.47;5005099;28;20037;-80
2021/09/12 02:30:32;;;;;;;14.85;6.55;;;;;;;-142.75;100.00;76999.44;5003018;28;19917;-80
2021/09/12 02:32:57;;;;;;;;;;;;;;;-142.75;100.00;76999.44;5003341;28;20049;-82
2021/09/12 02:35:23;;;;;;;14.77;7.07;;;;;;;-142.75;100.00;77009.28;5000377;28;19918;-82
2021/09/12 02:37:48;;;;;;;;;;;;;;;-142.75;100.00;77001.41;5002251;28;20077;-80
2021/09/12 02:40:14;;;;;;;15.82;6.40;;;;;;;-142.75;100.00;77009.28;5004034;28;19917;-81
2021/09/12 02:42:39;;;;;;;;;;;;;;;-142.75;100.00;77003.38;5000817;28;20023;-81
2021/09/12 02:45:09;;;;;;;16.33;7.25;;;;;;;-142.75;100.00;77009.28;5007919;28;19913;-82
2021/09/12 02:47:35;;;;;;;15.32;7.10;;;;;;;-142.75;100.00;77011.25;5001459;28;20026;-83
2021/09/12 02:50:00;;;;;;;15.95;8.10;;;;;;;-142.75;100.00;77017.16;5002707;28;20727;-80
2021/09/12 02:52:26;;;;;;;;;;;;;;;-142.75;100.00;77019.13;5001253;28;20030;-81
2021/09/12 02:54:51;;;;;;;16.58;7.20;;;;;;;-142.75;100.00;77019.13;4998972;28;19920;-81
2021/09/12 02:57:16;;;;;;;;;;;;;;;-142.75;100.00;77023.06;5004686;28;20444;-81
2021/09/12 02:59:41;;;;;;;20.50;7.75;;;;;;;-142.75;100.00;77027.00;5003854;28;19914;-82
2021/09/12 03:02:06;;;;;;;;;;;;;;;-142.75;100.00;77034.88;5003885;28;20041;-80
2021/09/12 03:04:32;;;;;;;17.83;8.48;;;;;;;-142.75;100.00;77032.91;5007143;28;19929;-82
2021/09/12 03:06:57;;;;;;;;;;;;;;;-142.75;100.00;77032.91;4999504;28;20030;-81
2021/09/12 03:09:22;;;;;;;17.90;8.07;;;;;;;-142.75;100.00;77042.75;5002088;28;19976;-82
2021/09/12 03:11:47;;;;;;;;;;;;;;;-142.75;100.00;77060.47;5005813;28;20053;-80
2021/09/12 03:14:13;;;;;;;20.27;8.15;;;;;;;-142.75;100.00;77054.56;5004082;28;19913;-81
2021/09/12 03:16:38;;;;;;;;;;;;;;;-142.75;100.00;77050.63;5004643;28;20479;-82
2021/09/12 03:19:03;;;;;;;20.65;9.15;;;;;;;-142.75;100.00;77052.59;5002587;28;19914;-81
2021/09/12 03:21:28;;;;;;;;;;;;;;;-142.75;100.00;77044.72;5000184;28;20036;-82
2021/09/12 03:23:54;;;;;;;19.08;9.35;;;;;;;-142.75;100.00;77046.69;5000283;28;19924;-81
2021/09/12 03:26:19;;;;;;;16.83;9.63;;;;;;;-142.75;100.00;77050.63;5001853;28;20076;-82
2021/09/12 03:28:44;;;;;;;;;;;;;;;-142.75;100.00;77050.63;5002344;28;20025;-80
2021/09/12 03:31:10;;;;;;;18.20;10.35;;;;;;;-142.75;100.00;77052.59;5003889;28;20311;-82
2021/09/12 03:33:35;;;;;;;;;;;;;;;-142.75;100.00;77046.69;5004594;28;20022;-79
2021/09/12 03:36:00;;;;;;;21.65;10.27;;;;;;;-142.75;100.00;77050.63;4999187;28;19918;-81
2021/09/12 03:38:26;;;;;;;21.52;10.00;;;;;;;-142.75;100.00;77044.72;5004027;28;20030;-80
2021/09/12 03:40:51;;;;;;;;;;;;;;;-142.75;100.00;77040.78;5005739;28;20120;-81
2021/09/12 03:43:16;;;;;;;22.88;10.05;;;;;;;-142.75;100.00;77034.88;5004024;28;19921;-82
2021/09/12 03:45:42;;;;;;;;;;;;;;;-142.75;100.00;77027.00;5006806;28;20427;-81
2021/09/12 03:48:07;;;;;;;23.10;9.98;;;;;;;-142.75;100.00;77021.09;5004361;28;19914;-82
2021/09/12 03:50:32;;;;;;;;;;;;;;;-142.75;100.00;77015.19;5001407;28;20037;-81
2021/09/12 03:52:58;;;;;;;22.80;10.32;;;;;;;-142.75;100.00;77021.09;5001008;28;20391;-82
2021/09/12 03:55:23;;;;;;;;;;;;;;;-142.75;100.00;77015.19;5005243;28;20060;-82
2021/09/12 03:57:49;;;;;;;23.55;11.23;;;;;;;-142.75;100.00;77023.06;5003239;28;20016;-82
2021/09/12 04:00:14;;;;;;;;;;;;;;;-142.75;100.00;77013.22;5008040;28;20081;-82
2021/09/12 04:02:40;;;;;;;23.08;10.77;;;;;;;-142.75;100.00;77011.25;4996837;28;20056;-79
2021/09/12 04:05:05;;;;;;;;;;;;;;;-142.75;100.00;77011.25;5004432;28;20083;-81
2021/09/12 04:07:31;;;;;;;22.75;11.48;;;;;;;-142.75;100.00;77007.31;4998719;28;20394;-82
2021/09/12 04:09:56;;;;;;;;;;;;;;;-142.75;100.00;77001.41;5003704;28;20026;-81
2021/09/12 04:12:21;;;;;;;24.58;11.18;;;;;;;-142.75;100.00;77019.13;5001613;28;19913;-81
2021/09/12 04:14:46;;;;;;;;;;;;;;;-142.75;100.00;77007.31;5004713;28;20439;-80
2021/09/12 04:17:12;;;;;;;20.55;11.27;;;;;;;-142.75;100.00;77005.34;5004577;28;19917;-82
2021/09/12 04:19:38;;;;;;;24.23;11.23;;;;;;;-142.75;100.00;76995.50;5001998;28;20038;-84
2021/09/12 04:22:03;;;;;;;;;;;;;;;-142.75;100.00;76987.63;5006075;28;20119;-81
2021/09/12 04:24:28;;;;;;;27.95;11.80;;;;;;;-142.75;100.00;76995.50;5003867;28;19944;-81
2021/09/12 04:26:54;;;;;;;;;;;;;;;-142.75;100.00;76981.72;4999843;28;20064;-84
2021/09/12 04:29:19;;;;;;;23.77;11.55;;;;;;;-142.75;100.00;76987.63;4999972;28;19914;-81
2021/09/12 04:31:44;;;;;;;;;;;;;;;-142.75;100.00;76971.88;5003937;28;20425;-81
2021/09/12 04:34:10;;;;;;;23.88;11.77;;;;;;;-142.75;100.00;76971.88;5003427;28;19920;-84
2021/09/12 04:36:35;;;;;;;;;;;;;;;-142.75;100.00;76967.94;5006233;28;20041;-80
2021/09/12 04:39:00;;;;;;;28.38;12.43;;;;;;;-142.75;100.00;76958.09;5005399;28;19914;-78
2021/09/12 04:41:26;;;;;;;;;;;;;;;-142.75;100.00;76952.19;5002927;28;20022;-80
2021/09/12 04:43:51;;;;;;;26.25;11.45;;;;;;;-142.75;100.00;76964.00;4999731;28;19914;-82
2021/09/12 04:46:16;;;;;;;;;;;;;;;-142.75;100.00;76971.88;5002655;28;20502;-80
2021/09/12 04:48:41;;;;;;;20.23;11.30;;;;;;;-142.75;100.00;76979.75;5002619;28;20459;-83
2021/09/12 04:51:06;;;;;;;;;;;;;;;-142.75;100.00;76981.72;5003024;28;20153;-82
2021/09/12 04:53:32;;;;;;;23.80;12.98;;;;;;;-142.75;100.00;76989.59;5000814;28;20303;-83
2021/09/12 04:55:57;;;;;;;;;;;;;;;-142.75;100.00;77001.41;4999780;28;20499;-80
2021/09/12 04:58:22;;;;;;;28.45;13.30;;;;;;;-142.75;100.00;77011.25;5000911;28;20280;-83
2021/09/12 05:00:48;;;;;;;;;;;;;;;-142.75;100.00;77019.13;5004422;28;20026;-82
2021/09/12 05:03:13;;;;;;;23.02;12.65;;;;;;;-142.75;100.00;77019.13;5002907;28;19914;-81
2021/09/12 05:05:38;;;;;;;;;;;;;;;-142.75;100.00;77015.19;4999490;28;20547;-82
2021/09/12 05:08:04;;;;;;;23.60;13.40;;;;;;;-142.75;100.00;77015.19;5001128;28;19925;-80
2021/09/12 05:10:29;;;;;;;;;;;;;;;-142.75;100.00;77011.25;4996886;28;20451;-82
2021/09/12 05:12:55;;;;;;;26.80;14.38;;;;;;;-142.75;100.00;77017.16;4997181;28;19967;-82
2021/09/12 05:15:20;;;;;;;;;;;;;;;-142.75;100.00;77007.31;5000806;28;20033;-82
2021/09/12 05:17:45;;;;;;;32.47;14.30;;;;;;;-142.75;100.00;77011.25;4999166;28;19921;-83
2021/09/12 05:20:11;;;;;;;26.15;14.32;;;;;;;-142.75;100.00;76999.44;5004481;28;20087;-81
2021/09/12 05:22:38;;;;;;;;;;;;;;;-142.75;100.00;77005.34;4998446;28;20065;-81
2021/09/12 05:25:06;;;;;;;29.70;15.43;;;;;;;-142.75;100.00;77009.28;5002108;28;19922;-84
2021/09/12 05:27:31;;;;;;;29.92;13.65;;;;;;;-142.75;100.00;77015.19;5002763;28;20069;-80
2021/09/12 05:29:57;;;;;;;;;;;;;;;-142.75;100.00;77017.16;5030342;22;20037;-77
2021/09/12 05:32:22;;;;;;;32.17;15.30;;;;;;;-142.75;100.00;77019.13;5019566;28;19917;-78
2021/09/12 05:34:47;;;;;;;;;;;;;;;-142.75;100.00;77015.19;5023069;28;20038;-77
2021/09/12 05:37:13;;;;;;;29.58;14.55;;;;;;;-142.75;100.00;77011.25;5027440;28;19976;-78
2021/09/12 05:39:38;;;;;;;;;;;;;;;-142.75;100.00;77011.25;5003730;28;20385;-77
2021/09/12 05:42:04;;;;;;;25.85;13.93;;;;;;;-142.75;100.00;77005.34;5002083;28;19937;-79
2021/09/12 05:44:30;;;;;;;;;;;;;;;-142.75;100.00;77015.19;5004264;28;20030;-78
2021/09/12 05:46:55;;;;;;;29.60;14.10;;;;;;;-142.75;100.00;77003.38;5000303;28;19967;-78
2021/09/12 05:49:20;;;;;;;;;;;;;;;-142.75;100.00;77011.25;4997127;28;20037;-78
2021/09/12 05:51:47;;;;;;;22.42;12.68;;;;;;;-142.75;100.00;77007.31;5001248;28;19921;-78
2021/09/12 05:54:12;;;;;;;23.20;13.18;;;;;;;-142.75;100.00;77007.31;5003518;28;20022;-78
2021/09/12 05:56:37;;;;;;;;;;;;;;;-142.75;100.00;77007.31;5005909;28;20049;-77
2021/09/12 05:59:02;;;;;;;30.33;14.50;;;;;;;-142.75;100.00;76991.56;5003555;28;19914;-79
2021/09/12 06:01:28;;;;;;;;;;;;;;;-142.75;100.00;76993.53;5002560;28;20480;-77
2021/09/12 06:03:53;;;;;;;25.40;14.43;;;;;;;-142.75;100.00;76979.75;4999819;28;19967;-77
2021/09/12 06:06:18;;;;;;;;;;;;;;;-142.75;100.00;76967.94;5002953;28;20026;-78
2021/09/12 06:08:43;;;;;;;27.13;14.18;;;;;;;-142.75;100.00;76956.13;4999095;28;19925;-77
2021/09/12 06:11:10;;;;;;;;;;;;;;;-142.75;100.00;76956.13;4997609;28;20096;-78
2021/09/12 06:13:37;;;;;;;31.48;14.63;;;;;;;-142.75;100.00;76954.16;4999237;28;19914;-77
2021/09/12 06:16:03;;;;;;;30.63;13.90;;;;;;;-142.75;100.00;76956.13;5002642;28;20018;-77
2021/09/12 06:18:28;;;;;;;;;;;;;;;-142.75;100.00;76958.09;5001047;28;20029;-77
2021/09/12 06:20:53;;;;;;;31.60;15.20;;;;;;;-142.75;100.00;76971.88;5004997;28;20294;-78
2021/09/12 06:23:18;;;;;;;;;;;;;;;-142.75;100.00;76954.16;5006013;28;20539;-79
2021/09/12 06:25:44;;;;;;;22.30;13.70;;;;;;;-142.75;100.00;76950.22;5004227;28;19977;-79
2021/09/12 06:28:09;;;;;;;;;;;;;;;-142.75;100.00;76934.47;5005804;28;20546;-79
2021/09/12 06:30:34;;;;;;;24.83;12.93;;;;;;;-142.75;100.00;76930.53;4996158;28;19920;-77
2021/09/12 06:32:59;;;;;;;;;;;;;;;-142.75;100.00;76912.81;5007019;28;20025;-78
2021/09/12 06:35:24;;;;;;;25.08;14.10;;;;;;;-142.75;100.00;76877.38;4998722;28;19918;-78
2021/09/12 06:37:50;;;;;;;;;;;;;;;-142.75;100.00;76857.69;4999538;28;20053;-78
2021/09/12 06:40:16;;;;;;;22.95;12.82;;;;;;;-142.75;100.00;76845.88;4995799;28;19913;-77
2021/09/12 06:42:42;;;;;;;22.80;13.80;;;;;;;-142.75;100.00;76830.13;4995532;28;20112;-79
2021/09/12 06:45:07;;;;;;;;;;;;;;;-142.75;100.00;76849.81;4998543;28;20403;-79
2021/09/12 06:47:33;;;;;;;28.15;14.60;;;;;;;-142.75;100.00;76818.31;4999944;28;19920;-76
2021/09/12 06:49:58;;;;;;;;;;;;;;;-142.75;100.00;76802.56;4999695;28;20022;-78
2021/09/12 06:52:24;;;;;;;24.80;13.95;;;;;;;-142.75;100.00;76794.69;4997429;28;19944;-78
2021/09/12 06:54:49;;;;;;;;;;;;;;;-142.75;100.00;76798.66;5005856;28;20030;-79
2021/09/12 06:57:14;;;;;;;31.88;14.48;;;;;;;-142.75;100.00;76786.84;5007137;28;19917;-78
2021/09/12 06:59:39;;;;;;;;;;;;;;;-142.75;99.66;76794.69;5007875;28;20021;-78
2021/09/12 07:02:05;;;;;;;28.27;14.25;;;;;;;-142.75;100.00;76790.78;5004136;28;19914;-77
2021/09/12 07:04:30;;;;;;;;;;;;;;;-142.75;100.00;76802.56;5000900;28;20396;-77
2021/09/12 07:06:55;;;;;;;30.20;14.35;;;;;;;-142.75;99.42;76784.88;5006667;28;20016;-79
2021/09/12 07:09:20;;;;;;;;;;;;;;;-142.75;99.58;76790.78;5007816;28;20091;-78
2021/09/12 07:11:45;;;;;;;24.60;13.85;;;;;;;-142.75;99.98;76782.91;5010983;28;20399;-78
2021/09/12 07:14:11;;;;;;;;;;;;;;;-142.75;99.55;76780.94;4999344;28;20030;-77
2021/09/12 07:16:36;;;;;;;25.55;14.90;;;;;;;-142.75;100.00;76786.84;5002688;28;19914;-77
2021/09/12 07:19:07;;;;;;;;;;;;;;;-142.75;100.00;76788.81;5006277;28;20026;-78
2021/09/12 07:21:32;;;;;;;26.05;14.77;;;;;;;-142.75;99.99;76784.88;5008290;28;19914;-78
2021/09/12 07:23:57;;;;;;;34.97;15.82;;;;;;;-142.75;100.00;76784.88;5006857;28;20064;-77
2021/09/12 07:26:23;;;;;;;;;;;;;;;-142.75;100.00;76767.16;5000529;28;20488;-78
2021/09/12 07:28:48;;;;;;;38.67;17.33;;;;;;;-142.75;100.00;76747.47;5011242;28;19913;-78
2021/09/12 07:31:13;;;;;;;;;;;;;;;-142.75;100.00;76731.72;4999512;28;20113;-77
2021/09/12 07:33:38;;;;;;;40.58;18.05;;;;;;;-142.75;99.02;76715.97;5003399;28;19917;-77
2021/09/12 07:36:04;;;;;;;;;;;;;;;-142.75;97.94;76688.41;4999596;28;20066;-77
2021/09/12 07:38:30;;;;;;;40.90;17.42;;;;;;;-142.75;97.69;76686.44;5011042;28;20371;-77
2021/09/12 07:40:55;;;;;;;35.65;17.83;;;;;;;-142.75;96.73;76712.03;5011257;28;20473;-77
2021/09/12 07:43:21;;;;;;;38.13;17.77;;;;;;;-142.75;96.54;76704.16;5000502;28;20034;-78
2021/09/12 07:45:46;;;;;;;38.28;17.10;;;;;;;-142.75;97.00;76704.16;5010148;28;20024;-77
2021/09/12 07:48:11;;;;;;;;;;;;;;;-142.75;97.31;76723.84;5009998;28;20064;-79
2021/09/12 07:50:36;;;;;;;38.85;17.15;;;;;;;-142.75;97.98;76723.84;5015659;28;19935;-78
2021/09/12 07:53:02;;;;;;;;;;;;;;;-142.75;98.28;76719.91;5002025;28;20037;-77
2021/09/12 07:55:27;;;;;;;38.60;18.50;;;;;;;-142.75;98.39;76714.00;5003650;28;19920;-77
2021/09/12 07:57:52;;;;;;;38.08;20.00;;;;;;;-142.75;97.81;76719.91;5000387;28;20461;-78
2021/09/12 08:00:18;;;;;;;47.72;19.67;;;;;;;-142.75;98.04;76719.91;5000392;28;20580;-78
2021/09/12 08:02:44;;;;;;;42.45;19.02;;;;;;;-142.75;98.15;76725.81;4994477;28;20030;-78
2021/09/12 08:05:10;;;;;;;40.63;19.20;;;;;;;-142.75;98.24;76717.94;4993613;28;20026;-76
2021/09/12 08:07:35;;;;;;;;;;;;;;;-142.75;98.27;76731.72;4995269;28;20022;-78
2021/09/12 08:10:00;;;;;;;43.03;19.88;;;;;;;-142.75;98.64;76739.59;4995171;28;19983;-78
2021/09/12 08:12:26;;;;;;;46.33;20.77;;;;;;;-142.75;98.61;76755.34;5006377;28;20036;-77
2021/09/12 08:14:51;;;;;;;44.78;21.50;;;;;;;-142.75;98.74;76753.38;5013758;28;20108;-78
2021/09/12 08:17:17;;;;;;;44.28;21.08;;;;;;;-142.75;99.52;76739.59;5014344;28;20072;-78
2021/09/12 08:19:42;;;;;;;40.05;20.38;;;;;;;-142.75;100.00;76739.59;5005391;28;20049;-77
2021/09/12 08:22:07;;;;;;;47.88;21.90;;;;;;;-142.75;100.00;76739.59;5002403;28;20072;-77
2021/09/12 08:24:33;;;;;;;;;;;;;;;-142.75;99.04;76715.97;4992831;28;20034;-78
2021/09/12 08:26:59;;;;;;;47.83;22.05;;;;;;;-142.75;98.61;76717.94;5011061;28;20379;-79
2021/09/12 08:29:24;;;;;;;;;;;;;;;-142.75;97.85;76715.97;5002223;28;20034;-78
2021/09/12 08:31:49;;;;;;;43.05;22.80;;;;;;;-142.75;97.43;76688.41;4997336;28;20383;-78
2021/09/12 08:34:16;;;;;;;48.67;22.38;;;;;;;-142.75;96.77;76668.72;5010092;28;20480;-78
2021/09/12 08:36:41;;;;;;;43.65;22.65;;;;;;;-142.75;96.69;76654.94;5010871;28;20029;-78
2021/09/12 08:39:07;;;;;;;41.50;22.98;;;;;;;-142.75;94.74;76639.19;5004942;28;20037;-78
2021/09/12 08:41:32;;;;;;;;;;;;;;;-142.75;94.34;76617.53;5003277;28;20030;-78
2021/09/12 08:43:58;;;;;;;45.28;22.63;;;;;;;-142.75;92.91;76609.66;4997658;28;19956;-77
2021/09/12 08:46:24;;;;;;;47.95;23.95;;;;;;;-142.75;92.29;76554.53;4997910;28;20549;-77
2021/09/12 08:48:50;;;;;;;45.38;23.00;;;;;;;-142.75;90.04;76536.84;5008341;28;20152;-78
2021/09/12 08:51:15;;;;;;;46.05;24.27;;;;;;;-142.75;89.67;76552.56;5007742;28;20022;-77
2021/09/12 08:53:41;;;;;;;41.08;24.90;;;;;;;-142.75;89.63;76527.00;5009221;28;20100;-77
2021/09/12 08:56:07;;;;;;;52.60;27.50;;;;;;;-142.75;88.93;76507.31;4990707;28;20038;-77
2021/09/12 08:58:32;;;;;;;53.05;28.90;;;;;;;-142.75;87.10;76542.72;4994884;28;20034;-77
2021/09/12 09:01:01;;;;;;;50.15;28.88;;;;;;;-142.75;89.65;76483.69;5000787;28;20018;-77
2021/09/12 09:03:35;;;;;;;54.78;30.77;;;;;;;-142.75;88.25;76399.03;4994213;28;20033;-77
2021/09/12 09:06:10;;;;;;;60.10;33.13;;;;;;;-142.75;81.75;76458.09;5002757;28;20571;-78
2021/09/12 09:08:48;;;;;;;53.90;31.70;;;;;;;-142.75;83.95;76532.88;4993089;28;20125;-78
2021/09/12 09:11:13;;;;;;;56.45;32.92;;;;;;;-142.75;85.81;76560.44;4992160;28;20515;-78
2021/09/12 09:13:39;;;;;;;52.90;29.92;;;;;;;-142.75;87.25;76521.09;4991838;28;20030;-77
2021/09/12 09:16:23;;;;;;;55.30;31.98;;;;;;;-142.75;87.11;76523.06;4995947;28;20373;-77
2021/09/12 09:18:49;;;;;;;60.60;34.13;;;;;;;-142.75;86.82;76416.75;5005531;28;20503;-77
2021/09/12 09:21:31;;;;;;;58.97;34.25;;;;;;;-142.75;82.85;76227.78;5007223;28;20034;-77
2021/09/12 09:24:22;;;;;;;61.40;33.75;;;;;;;-142.75;73.74;76184.50;4996582;28;20023;-80
2021/09/12 09:26:47;;;;;;;52.58;30.80;;;;;;;-142.75;68.67;76060.50;4991256;28;20026;-75
2021/09/12 09:29:14;;;;;;;57.45;32.00;;;;;;;-142.75;66.94;76129.38;5007872;28;20030;-76
2021/09/12 09:31:41;;;;;;;51.78;30.85;;;;;;;-142.75;69.47;76101.81;5009601;28;20029;-75
2021/09/12 09:34:19;;;;;;;58.30;31.98;;;;;;;-142.75;69.63;76115.59;5005048;28;20029;-76
2021/09/12 09:36:46;;;;;;;55.00;32.30;;;;;;;-142.75;74.72;76062.47;5007809;28;20041;-75
2021/09/12 09:39:11;;;;;;;43.92;28.90;;;;;;;-142.75;70.63;76007.34;5008932;28;20087;-75
2021/09/12 09:41:38;;;;;;;50.50;28.35;;;;;;;-142.75;68.26;75840.06;5008992;28;20112;-76
2021/09/12 09:44:11;;;;;;;44.47;26.73;;;;;;;-142.75;60.33;75796.75;4997988;28;20044;-76
2021/09/12 09:46:42;;;;;;;41.53;27.08;;;;;;;-142.75;60.24;75958.16;4991619;28;20033;-76
2021/09/12 09:49:29;;;;;;;43.42;25.83;;;;;;;-142.75;62.40;75926.66;5003174;28;20028;-76
2021/09/12 09:52:01;;;;;;;41.92;25.60;;;;;;;-142.75;63.71;75826.28;5007897;28;20444;-76
2021/09/12 09:54:31;;;;;;;41.17;26.05;;;;;;;-142.75;61.56;75672.78;5003939;28;20029;-75
2021/09/12 09:56:57;;;;;;;36.00;23.45;;;;;;;-142.75;56.20;75605.84;5000069;28;20504;-75
2021/09/12 09:59:24;;;;;;;36.80;24.08;;;;;;;-142.75;55.54;75733.78;4994863;28;20036;-77
2021/09/12 10:01:52;;;;;;;34.45;23.20;;;;;;;-142.75;56.25;75550.75;4991596;28;20063;-74
2021/09/12 10:04:19;;;;;;;31.15;21.83;;;;;;;-142.75;54.57;75395.28;5003547;28;20033;-76
2021/09/12 10:06:45;;;;;;;31.40;22.15;;;;;;;-142.75;52.64;75377.56;4996810;28;20030;-76
2021/09/12 10:09:13;;;;;;;33.80;22.25;;;;;;;-142.75;50.26;75401.19;5004695;28;20041;-75
2021/09/12 10:12:04;;;;;;;32.72;20.67;;;;;;;-142.75;49.37;75302.78;4988288;28;20026;-76
2021/09/12 10:14:33;;;;;;;35.53;19.70;;;;;;;-142.75;47.70;75249.66;4996765;28;20104;-75
2021/09/12 10:17:00;;;;;;;26.58;19.30;;;;;;;-142.75;46.54;75251.63;4997310;28;20041;-78
2021/09/12 10:19:43;;;;;;;24.77;18.60;;;;;;;-142.75;46.76;75350.03;5003913;28;20108;-75
2021/09/12 10:22:10;;;;;;;26.50;18.15;;;;;;;-142.75;48.41;75377.56;5001864;28;20117;-76
2021/09/12 10:25:01;;;;;;;27.63;19.63;;;;;;;-142.75;48.63;75418.91;5004253;28;20026;-76
2021/09/12 10:27:40;;;;;;;28.45;19.50;;;;;;;-142.75;48.18;75352.00;4990941;28;20045;-75
2021/09/12 10:30:22;;;;;;;21.92;16.10;;;;;;;-142.75;47.35;75413.00;4990490;28;20031;-76
2021/09/12 10:32:51;;;;;;;20.23;14.13;;;;;;;-142.75;48.57;75371.66;4990979;28;20026;-75
2021/09/12 10:35:18;;;;;;;22.13;13.77;;;;;;;-142.75;48.76;75350.03;4990437;28;20030;-75
2021/09/12 10:38:01;;;;;;;26.80;15.50;;;;;;;-142.75;47.33;75220.16;4990060;28;20702;-76
2021/09/12 10:40:53;;;;;;;25.00;16.23;;;;;;;-142.75;44.41;75336.25;4989109;28;20041;-74
2021/09/12 10:43:24;;;;;;;19.02;13.02;;;;;;;-142.75;47.03;75468.09;4992570;28;20124;-75
2021/09/12 10:48:38;;;;;;;20.20;12.48;;;;;;;-142.75;50.41;75627.50;4992587;28;20031;-75
2021/09/12 10:51:06;;;;;;;19.25;13.75;;;;;;;-142.75;51.74;75688.50;4997904;28;20365;-76
2021/09/12 10:53:47;;;;;;;20.33;13.60;;;;;;;-142.75;54.42;75735.75;4995995;28;20432;-75
2021/09/12 10:56:15;;;;;;;18.35;12.48;;;;;;;-142.75;53.79;75759.38;4994443;28;20037;-75
2021/09/12 10:58:40;;;;;;;12.48;10.88;;;;;;;-142.75;53.44;75798.72;4994309;28;20037;-75
2021/09/12 11:01:07;;;;;;;14.82;10.73;;;;;;;-142.75;55.55;75838.09;5009510;28;20395;-75
2021/09/12 11:03:34;;;;;;;15.40;10.40;;;;;;;-142.75;54.62;75879.41;5006070;28;20109;-75
2021/09/12 11:06:01;;;;;;;14.07;10.88;;;;;;;-142.75;56.46;75940.44;5013778;28;20026;-75
2021/09/12 11:08:39;;;;;;;16.73;10.27;;;;;;;-142.75;57.67;75975.84;5009834;28;20023;-75
2021/09/12 11:11:06;;;;;;;16.20;10.00;;;;;;;-142.75;58.52;75993.56;4993247;28;20033;-75
2021/09/12 11:13:33;;;;;;;15.65;11.13;;;;;;;-142.75;59.40;76019.16;5008121;28;20025;-75
2021/09/12 11:16:14;;;;;;;15.30;10.60;;;;;;;-142.75;60.40;76019.16;4999853;28;20443;-75
2021/09/12 11:18:48;;;;;;;15.68;10.65;;;;;;;-142.75;61.20;76021.13;4996556;28;20397;-75
2021/09/12 11:21:31;;;;;;;19.45;11.65;;;;;;;-142.75;62.12;75969.94;4997824;28;20026;-75
2021/09/12 11:24:04;;;;;;;17.92;12.57;;;;;;;-142.75;59.62;75958.16;4998234;28;20096;-74